sensor_id;sensor_type;location;lat;lon;timestamp;P1;durP1;ratioP1;P2;durP2;ratioP2
12181;SDS011;6154;51.550;12.138;2024-01-15T00:00:34;12.30;;;4.68;;
12181;SDS011;6154;51.550;12.138;2024-01-15T00:03:03;11.12;;;4.25;;
12181;SDS011;6154;51.550;12.138;2024-01-15T00:05:32;6.15;;;3.75;;
12181;SDS011;6154;51.550;12.138;2024-01-15T00:08:00;7.07;;;4.37;;
12181;SDS011;6154;51.550;12.138;2024-01-15T00:10:28;6.70;;;3.80;;
12181;SDS011;6154;51.550;12.138;2024-01-15T00:12:56;7.53;;;3.90;;
12181;SDS011;6154;51.550;12.138;2024-01-15T00:15:24;5.07;;;3.55;;
12181;SDS011;6154;51.550;12.138;2024-01-15T00:17:55;5.87;;;3.50;;
12181;SDS011;6154;51.550;12.138;2024-01-15T00:20:23;7.30;;;3.67;;
12181;SDS011;6154;51.550;12.138;2024-01-15T00:22:56;7.60;;;4.07;;
12181;SDS011;6154;51.550;12.138;2024-01-15T00:25:23;6.72;;;3.00;;
12181;SDS011;6154;51.550;12.138;2024-01-15T00:27:51;8.10;;;4.20;;
12181;SDS011;6154;51.550;12.138;2024-01-15T00:30:20;8.20;;;3.75;;
12181;SDS011;6154;51.550;12.138;2024-01-15T00:32:48;7.28;;;3.75;;
12181;SDS011;6154;51.550;12.138;2024-01-15T00:35:16;6.75;;;3.10;;
12181;SDS011;6154;51.550;12.138;2024-01-15T00:37:44;7.37;;;4.03;;
12181;SDS011;6154;51.550;12.138;2024-01-15T00:40:13;7.57;;;3.78;;
12181;SDS011;6154;51.550;12.138;2024-01-15T00:42:41;7.20;;;2.97;;
12181;SDS011;6154;51.550;12.138;2024-01-15T00:45:09;6.35;;;3.85;;
12181;SDS011;6154;51.550;12.138;2024-01-15T00:47:38;8.18;;;3.28;;
12181;SDS011;6154;51.550;12.138;2024-01-15T00:50:06;10.60;;;4.22;;
12181;SDS011;6154;51.550;12.138;2024-01-15T00:52:35;7.62;;;3.80;;
12181;SDS011;6154;51.550;12.138;2024-01-15T00:55:03;6.90;;;3.72;;
12181;SDS011;6154;51.550;12.138;2024-01-15T00:57:32;7.00;;;3.50;;
12181;SDS011;6154;51.550;12.138;2024-01-15T01:00:01;6.68;;;3.75;;
12181;SDS011;6154;51.550;12.138;2024-01-15T01:02:36;8.55;;;4.00;;
12181;SDS011;6154;51.550;12.138;2024-01-15T01:05:05;5.95;;;3.72;;
12181;SDS011;6154;51.550;12.138;2024-01-15T01:07:51;7.15;;;4.22;;
12181;SDS011;6154;51.550;12.138;2024-01-15T01:10:20;6.35;;;3.83;;
12181;SDS011;6154;51.550;12.138;2024-01-15T01:12:53;5.72;;;3.97;;
12181;SDS011;6154;51.550;12.138;2024-01-15T01:15:22;8.27;;;4.28;;
12181;SDS011;6154;51.550;12.138;2024-01-15T01:17:55;7.80;;;3.97;;
12181;SDS011;6154;51.550;12.138;2024-01-15T01:20:38;5.32;;;3.70;;
12181;SDS011;6154;51.550;12.138;2024-01-15T01:23:08;8.05;;;3.83;;
12181;SDS011;6154;51.550;12.138;2024-01-15T01:25:37;6.97;;;3.90;;
12181;SDS011;6154;51.550;12.138;2024-01-15T01:28:22;5.35;;;3.37;;
12181;SDS011;6154;51.550;12.138;2024-01-15T01:30:53;7.15;;;4.10;;
12181;SDS011;6154;51.550;12.138;2024-01-15T01:33:22;6.72;;;3.92;;
12181;SDS011;6154;51.550;12.138;2024-01-15T01:35:51;8.85;;;4.65;;
12181;SDS011;6154;51.550;12.138;2024-01-15T01:38:27;8.88;;;4.00;;
12181;SDS011;6154;51.550;12.138;2024-01-15T01:40:55;6.20;;;3.97;;
12181;SDS011;6154;51.550;12.138;2024-01-15T01:43:24;8.35;;;4.10;;
12181;SDS011;6154;51.550;12.138;2024-01-15T01:45:52;8.48;;;3.67;;
12181;SDS011;6154;51.550;12.138;2024-01-15T01:48:42;5.35;;;3.78;;
12181;SDS011;6154;51.550;12.138;2024-01-15T01:51:10;6.60;;;4.35;;
12181;SDS011;6154;51.550;12.138;2024-01-15T01:53:47;6.53;;;3.87;;
12181;SDS011;6154;51.550;12.138;2024-01-15T01:56:16;10.07;;;4.87;;
12181;SDS011;6154;51.550;12.138;2024-01-15T01:58:46;8.18;;;3.92;;
12181;SDS011;6154;51.550;12.138;2024-01-15T02:01:15;6.15;;;4.03;;
12181;SDS011;6154;51.550;12.138;2024-01-15T02:03:44;6.32;;;3.72;;
12181;SDS011;6154;51.550;12.138;2024-01-15T02:06:12;7.60;;;4.12;;
12181;SDS011;6154;51.550;12.138;2024-01-15T02:08:41;9.70;;;4.82;;
12181;SDS011;6154;51.550;12.138;2024-01-15T02:11:27;7.60;;;3.80;;
12181;SDS011;6154;51.550;12.138;2024-01-15T02:13:56;7.78;;;4.22;;
12181;SDS011;6154;51.550;12.138;2024-01-15T02:16:25;8.45;;;4.35;;
12181;SDS011;6154;51.550;12.138;2024-01-15T02:18:53;7.62;;;4.32;;
12181;SDS011;6154;51.550;12.138;2024-01-15T02:21:20;4.68;;;3.20;;
12181;SDS011;6154;51.550;12.138;2024-01-15T02:23:50;8.48;;;3.70;;
12181;SDS011;6154;51.550;12.138;2024-01-15T02:26:20;5.40;;;3.50;;
12181;SDS011;6154;51.550;12.138;2024-01-15T02:28:49;9.07;;;4.37;;
12181;SDS011;6154;51.550;12.138;2024-01-15T02:31:18;13.02;;;3.53;;
12181;SDS011;6154;51.550;12.138;2024-01-15T02:33:46;9.25;;;3.90;;
12181;SDS011;6154;51.550;12.138;2024-01-15T02:36:15;5.28;;;3.45;;
12181;SDS011;6154;51.550;12.138;2024-01-15T02:38:43;6.55;;;3.87;;
12181;SDS011;6154;51.550;12.138;2024-01-15T02:41:13;8.27;;;4.03;;
12181;SDS011;6154;51.550;12.138;2024-01-15T02:43:41;4.90;;;2.65;;
12181;SDS011;6154;51.550;12.138;2024-01-15T02:46:09;6.72;;;3.50;;
12181;SDS011;6154;51.550;12.138;2024-01-15T02:48:37;5.62;;;3.92;;
12181;SDS011;6154;51.550;12.138;2024-01-15T02:51:05;5.78;;;3.47;;
12181;SDS011;6154;51.550;12.138;2024-01-15T02:53:35;10.48;;;4.00;;
12181;SDS011;6154;51.550;12.138;2024-01-15T02:56:03;10.55;;;4.53;;
12181;SDS011;6154;51.550;12.138;2024-01-15T02:58:32;8.45;;;3.92;;
12181;SDS011;6154;51.550;12.138;2024-01-15T03:01:01;6.45;;;3.35;;
12181;SDS011;6154;51.550;12.138;2024-01-15T03:03:29;8.27;;;3.37;;
12181;SDS011;6154;51.550;12.138;2024-01-15T03:05:57;10.23;;;4.15;;
12181;SDS011;6154;51.550;12.138;2024-01-15T03:08:25;6.32;;;3.28;;
12181;SDS011;6154;51.550;12.138;2024-01-15T03:10:53;5.25;;;2.97;;
12181;SDS011;6154;51.550;12.138;2024-01-15T03:13:21;5.82;;;3.25;;
12181;SDS011;6154;51.550;12.138;2024-01-15T03:15:50;6.68;;;3.15;;
12181;SDS011;6154;51.550;12.138;2024-01-15T03:18:18;7.10;;;3.47;;
12181;SDS011;6154;51.550;12.138;2024-01-15T03:20:46;7.30;;;2.97;;
12181;SDS011;6154;51.550;12.138;2024-01-15T03:23:14;5.65;;;2.75;;
12181;SDS011;6154;51.550;12.138;2024-01-15T03:25:42;5.68;;;2.53;;
12181;SDS011;6154;51.550;12.138;2024-01-15T03:28:11;5.55;;;3.30;;
12181;SDS011;6154;51.550;12.138;2024-01-15T03:30:39;4.68;;;2.55;;
12181;SDS011;6154;51.550;12.138;2024-01-15T03:33:08;8.82;;;3.97;;
12181;SDS011;6154;51.550;12.138;2024-01-15T03:35:36;6.43;;;2.58;;
12181;SDS011;6154;51.550;12.138;2024-01-15T03:38:04;5.82;;;3.12;;
12181;SDS011;6154;51.550;12.138;2024-01-15T03:40:32;7.57;;;3.42;;
12181;SDS011;6154;51.550;12.138;2024-01-15T03:43:00;4.95;;;2.53;;
12181;SDS011;6154;51.550;12.138;2024-01-15T03:45:28;8.27;;;3.17;;
12181;SDS011;6154;51.550;12.138;2024-01-15T03:47:56;7.85;;;3.92;;
12181;SDS011;6154;51.550;12.138;2024-01-15T03:50:26;5.62;;;3.10;;
12181;SDS011;6154;51.550;12.138;2024-01-15T03:52:54;7.37;;;3.78;;
12181;SDS011;6154;51.550;12.138;2024-01-15T03:55:22;9.70;;;3.45;;
12181;SDS011;6154;51.550;12.138;2024-01-15T03:57:49;5.45;;;3.20;;
12181;SDS011;6154;51.550;12.138;2024-01-15T04:00:18;7.65;;;4.28;;
12181;SDS011;6154;51.550;12.138;2024-01-15T04:02:46;4.78;;;2.92;;
12181;SDS011;6154;51.550;12.138;2024-01-15T04:05:14;6.03;;;3.65;;
12181;SDS011;6154;51.550;12.138;2024-01-15T04:07:43;5.93;;;2.80;;
12181;SDS011;6154;51.550;12.138;2024-01-15T04:10:12;7.80;;;3.55;;
12181;SDS011;6154;51.550;12.138;2024-01-15T04:12:40;6.10;;;2.53;;
12181;SDS011;6154;51.550;12.138;2024-01-15T04:15:08;5.95;;;3.65;;
12181;SDS011;6154;51.550;12.138;2024-01-15T04:17:36;8.95;;;2.95;;
12181;SDS011;6154;51.550;12.138;2024-01-15T04:20:05;5.87;;;2.97;;
12181;SDS011;6154;51.550;12.138;2024-01-15T04:22:33;4.22;;;3.10;;
12181;SDS011;6154;51.550;12.138;2024-01-15T04:25:05;4.72;;;2.90;;
12181;SDS011;6154;51.550;12.138;2024-01-15T04:27:34;5.97;;;2.40;;
12181;SDS011;6154;51.550;12.138;2024-01-15T04:30:02;3.78;;;2.22;;
12181;SDS011;6154;51.550;12.138;2024-01-15T04:32:31;4.95;;;2.80;;
12181;SDS011;6154;51.550;12.138;2024-01-15T04:34:59;5.47;;;2.12;;
12181;SDS011;6154;51.550;12.138;2024-01-15T04:37:28;6.30;;;3.10;;
12181;SDS011;6154;51.550;12.138;2024-01-15T04:39:56;5.78;;;3.15;;
12181;SDS011;6154;51.550;12.138;2024-01-15T04:42:26;5.68;;;2.25;;
12181;SDS011;6154;51.550;12.138;2024-01-15T04:44:54;5.28;;;1.95;;
12181;SDS011;6154;51.550;12.138;2024-01-15T04:47:22;3.45;;;2.53;;
12181;SDS011;6154;51.550;12.138;2024-01-15T04:49:50;4.07;;;2.17;;
12181;SDS011;6154;51.550;12.138;2024-01-15T04:52:18;5.62;;;3.08;;
12181;SDS011;6154;51.550;12.138;2024-01-15T04:54:46;7.55;;;2.75;;
12181;SDS011;6154;51.550;12.138;2024-01-15T04:57:14;4.03;;;2.65;;
12181;SDS011;6154;51.550;12.138;2024-01-15T04:59:43;5.87;;;2.60;;
12181;SDS011;6154;51.550;12.138;2024-01-15T05:02:11;5.55;;;1.73;;
12181;SDS011;6154;51.550;12.138;2024-01-15T05:04:39;3.45;;;1.83;;
12181;SDS011;6154;51.550;12.138;2024-01-15T05:07:08;3.85;;;1.83;;
12181;SDS011;6154;51.550;12.138;2024-01-15T05:09:36;4.72;;;2.33;;
12181;SDS011;6154;51.550;12.138;2024-01-15T05:12:04;5.37;;;2.05;;
12181;SDS011;6154;51.550;12.138;2024-01-15T05:14:33;7.93;;;2.83;;
12181;SDS011;6154;51.550;12.138;2024-01-15T05:17:02;7.60;;;2.87;;
12181;SDS011;6154;51.550;12.138;2024-01-15T05:19:34;3.28;;;1.80;;
12181;SDS011;6154;51.550;12.138;2024-01-15T05:22:02;3.92;;;2.12;;
12181;SDS011;6154;51.550;12.138;2024-01-15T05:24:30;2.10;;;1.40;;
12181;SDS011;6154;51.550;12.138;2024-01-15T05:26:58;3.53;;;1.90;;
12181;SDS011;6154;51.550;12.138;2024-01-15T05:29:26;2.40;;;1.23;;
12181;SDS011;6154;51.550;12.138;2024-01-15T05:31:54;2.65;;;1.58;;
12181;SDS011;6154;51.550;12.138;2024-01-15T05:34:29;3.35;;;1.95;;
12181;SDS011;6154;51.550;12.138;2024-01-15T05:36:57;4.25;;;2.35;;
12181;SDS011;6154;51.550;12.138;2024-01-15T05:39:25;3.70;;;2.00;;
12181;SDS011;6154;51.550;12.138;2024-01-15T05:41:53;5.28;;;2.40;;
12181;SDS011;6154;51.550;12.138;2024-01-15T05:44:21;2.35;;;1.83;;
12181;SDS011;6154;51.550;12.138;2024-01-15T05:46:49;2.83;;;1.37;;
12181;SDS011;6154;51.550;12.138;2024-01-15T05:49:17;5.93;;;1.58;;
12181;SDS011;6154;51.550;12.138;2024-01-15T05:51:46;3.33;;;2.00;;
12181;SDS011;6154;51.550;12.138;2024-01-15T05:54:14;3.55;;;2.08;;
12181;SDS011;6154;51.550;12.138;2024-01-15T05:56:42;3.47;;;1.42;;
12181;SDS011;6154;51.550;12.138;2024-01-15T05:59:10;4.37;;;2.40;;
12181;SDS011;6154;51.550;12.138;2024-01-15T06:01:41;4.07;;;2.65;;
12181;SDS011;6154;51.550;12.138;2024-01-15T06:04:09;3.40;;;2.10;;
12181;SDS011;6154;51.550;12.138;2024-01-15T06:06:37;6.18;;;3.17;;
12181;SDS011;6154;51.550;12.138;2024-01-15T06:09:07;4.05;;;2.22;;
12181;SDS011;6154;51.550;12.138;2024-01-15T06:11:35;2.90;;;2.35;;
12181;SDS011;6154;51.550;12.138;2024-01-15T06:14:03;3.50;;;2.12;;
12181;SDS011;6154;51.550;12.138;2024-01-15T06:16:31;4.30;;;1.92;;
12181;SDS011;6154;51.550;12.138;2024-01-15T06:18:59;3.72;;;1.55;;
12181;SDS011;6154;51.550;12.138;2024-01-15T06:21:27;3.50;;;1.62;;
12181;SDS011;6154;51.550;12.138;2024-01-15T06:23:55;2.65;;;1.77;;
12181;SDS011;6154;51.550;12.138;2024-01-15T06:26:25;4.95;;;2.08;;
12181;SDS011;6154;51.550;12.138;2024-01-15T06:28:53;3.97;;;1.65;;
12181;SDS011;6154;51.550;12.138;2024-01-15T06:31:21;3.80;;;2.25;;
12181;SDS011;6154;51.550;12.138;2024-01-15T06:33:49;2.12;;;1.60;;
12181;SDS011;6154;51.550;12.138;2024-01-15T06:36:17;3.22;;;1.90;;
12181;SDS011;6154;51.550;12.138;2024-01-15T06:38:45;2.70;;;1.73;;
12181;SDS011;6154;51.550;12.138;2024-01-15T06:41:13;1.90;;;1.52;;
12181;SDS011;6154;51.550;12.138;2024-01-15T06:43:42;7.35;;;2.17;;
12181;SDS011;6154;51.550;12.138;2024-01-15T06:46:10;2.37;;;1.90;;
12181;SDS011;6154;51.550;12.138;2024-01-15T06:48:38;4.12;;;2.08;;
12181;SDS011;6154;51.550;12.138;2024-01-15T06:51:06;3.75;;;2.10;;
12181;SDS011;6154;51.550;12.138;2024-01-15T06:53:34;2.12;;;1.58;;
12181;SDS011;6154;51.550;12.138;2024-01-15T06:56:03;5.28;;;2.87;;
12181;SDS011;6154;51.550;12.138;2024-01-15T06:58:31;12.27;;;2.47;;
12181;SDS011;6154;51.550;12.138;2024-01-15T07:01:00;1.87;;;1.55;;
12181;SDS011;6154;51.550;12.138;2024-01-15T07:03:29;6.72;;;1.85;;
12181;SDS011;6154;51.550;12.138;2024-01-15T07:05:57;4.00;;;1.80;;
12181;SDS011;6154;51.550;12.138;2024-01-15T07:08:25;2.62;;;1.73;;
12181;SDS011;6154;51.550;12.138;2024-01-15T07:10:53;4.00;;;2.15;;
12181;SDS011;6154;51.550;12.138;2024-01-15T07:13:21;2.08;;;1.58;;
12181;SDS011;6154;51.550;12.138;2024-01-15T07:15:48;2.30;;;2.10;;
12181;SDS011;6154;51.550;12.138;2024-01-15T07:18:18;4.18;;;2.20;;
12181;SDS011;6154;51.550;12.138;2024-01-15T07:20:46;5.03;;;1.92;;
12181;SDS011;6154;51.550;12.138;2024-01-15T07:23:14;3.33;;;2.00;;
12181;SDS011;6154;51.550;12.138;2024-01-15T07:25:44;3.78;;;2.00;;
12181;SDS011;6154;51.550;12.138;2024-01-15T07:28:12;3.37;;;1.75;;
12181;SDS011;6154;51.550;12.138;2024-01-15T07:30:40;2.60;;;1.77;;
12181;SDS011;6154;51.550;12.138;2024-01-15T07:33:07;5.10;;;2.17;;
12181;SDS011;6154;51.550;12.138;2024-01-15T07:35:37;8.60;;;2.20;;
12181;SDS011;6154;51.550;12.138;2024-01-15T07:38:05;2.78;;;2.03;;
12181;SDS011;6154;51.550;12.138;2024-01-15T07:40:33;2.12;;;1.90;;
12181;SDS011;6154;51.550;12.138;2024-01-15T07:43:01;4.15;;;2.03;;
12181;SDS011;6154;51.550;12.138;2024-01-15T07:45:29;5.82;;;1.80;;
12181;SDS011;6154;51.550;12.138;2024-01-15T07:47:58;4.50;;;2.37;;
12181;SDS011;6154;51.550;12.138;2024-01-15T07:50:26;6.20;;;2.60;;
12181;SDS011;6154;51.550;12.138;2024-01-15T07:52:55;3.40;;;2.17;;
12181;SDS011;6154;51.550;12.138;2024-01-15T07:55:23;5.03;;;3.08;;
12181;SDS011;6154;51.550;12.138;2024-01-15T07:57:51;3.10;;;2.28;;
12181;SDS011;6154;51.550;12.138;2024-01-15T08:00:32;3.85;;;2.00;;
12181;SDS011;6154;51.550;12.138;2024-01-15T08:03:00;4.87;;;1.85;;
12181;SDS011;6154;51.550;12.138;2024-01-15T08:05:29;3.83;;;1.98;;
12181;SDS011;6154;51.550;12.138;2024-01-15T08:07:59;5.22;;;2.40;;
12181;SDS011;6154;51.550;12.138;2024-01-15T08:10:27;2.95;;;1.55;;
12181;SDS011;6154;51.550;12.138;2024-01-15T08:12:55;3.78;;;2.35;;
12181;SDS011;6154;51.550;12.138;2024-01-15T08:15:23;4.43;;;2.42;;
12181;SDS011;6154;51.550;12.138;2024-01-15T08:17:56;4.12;;;2.45;;
12181;SDS011;6154;51.550;12.138;2024-01-15T08:20:25;3.00;;;1.73;;
12181;SDS011;6154;51.550;12.138;2024-01-15T08:22:53;4.93;;;2.42;;
12181;SDS011;6154;51.550;12.138;2024-01-15T08:25:23;4.68;;;2.45;;
12181;SDS011;6154;51.550;12.138;2024-01-15T08:27:52;1.75;;;1.33;;
12181;SDS011;6154;51.550;12.138;2024-01-15T08:30:20;3.97;;;2.20;;
12181;SDS011;6154;51.550;12.138;2024-01-15T08:32:51;4.20;;;1.92;;
12181;SDS011;6154;51.550;12.138;2024-01-15T08:35:20;1.77;;;1.58;;
12181;SDS011;6154;51.550;12.138;2024-01-15T08:37:49;2.60;;;1.50;;
12181;SDS011;6154;51.550;12.138;2024-01-15T08:40:17;4.18;;;2.12;;
12181;SDS011;6154;51.550;12.138;2024-01-15T08:42:47;3.58;;;2.12;;
12181;SDS011;6154;51.550;12.138;2024-01-15T08:45:15;6.82;;;2.25;;
12181;SDS011;6154;51.550;12.138;2024-01-15T08:47:43;4.35;;;2.10;;
12181;SDS011;6154;51.550;12.138;2024-01-15T08:50:11;2.95;;;1.50;;
12181;SDS011;6154;51.550;12.138;2024-01-15T08:52:39;3.83;;;2.05;;
12181;SDS011;6154;51.550;12.138;2024-01-15T08:55:07;4.10;;;2.10;;
12181;SDS011;6154;51.550;12.138;2024-01-15T08:57:35;6.32;;;2.30;;
12181;SDS011;6154;51.550;12.138;2024-01-15T09:00:05;6.35;;;2.87;;
12181;SDS011;6154;51.550;12.138;2024-01-15T09:02:35;2.42;;;1.62;;
12181;SDS011;6154;51.550;12.138;2024-01-15T09:05:04;4.82;;;2.67;;
12181;SDS011;6154;51.550;12.138;2024-01-15T09:07:33;4.72;;;2.65;;
12181;SDS011;6154;51.550;12.138;2024-01-15T09:10:01;4.35;;;2.53;;
12181;SDS011;6154;51.550;12.138;2024-01-15T09:12:29;2.25;;;1.73;;
12181;SDS011;6154;51.550;12.138;2024-01-15T09:14:57;4.37;;;1.67;;
12181;SDS011;6154;51.550;12.138;2024-01-15T09:17:26;3.20;;;1.80;;
12181;SDS011;6154;51.550;12.138;2024-01-15T09:19:55;3.30;;;1.85;;
12181;SDS011;6154;51.550;12.138;2024-01-15T09:22:23;5.68;;;1.70;;
12181;SDS011;6154;51.550;12.138;2024-01-15T09:24:51;3.65;;;2.10;;
12181;SDS011;6154;51.550;12.138;2024-01-15T09:27:18;4.55;;;2.00;;
12181;SDS011;6154;51.550;12.138;2024-01-15T09:29:46;4.25;;;1.95;;
12181;SDS011;6154;51.550;12.138;2024-01-15T09:32:14;2.70;;;1.70;;
12181;SDS011;6154;51.550;12.138;2024-01-15T09:34:45;3.67;;;2.00;;
12181;SDS011;6154;51.550;12.138;2024-01-15T09:37:13;4.53;;;2.17;;
12181;SDS011;6154;51.550;12.138;2024-01-15T09:40:02;2.03;;;1.55;;
12181;SDS011;6154;51.550;12.138;2024-01-15T09:42:30;4.28;;;2.40;;
12181;SDS011;6154;51.550;12.138;2024-01-15T09:44:59;3.65;;;1.95;;
12181;SDS011;6154;51.550;12.138;2024-01-15T09:47:28;2.35;;;1.75;;
12181;SDS011;6154;51.550;12.138;2024-01-15T09:49:58;2.17;;;1.52;;
12181;SDS011;6154;51.550;12.138;2024-01-15T09:52:26;3.33;;;1.75;;
12181;SDS011;6154;51.550;12.138;2024-01-15T09:54:54;1.85;;;1.35;;
12181;SDS011;6154;51.550;12.138;2024-01-15T09:57:22;4.20;;;2.28;;
12181;SDS011;6154;51.550;12.138;2024-01-15T09:59:51;5.70;;;2.00;;
12181;SDS011;6154;51.550;12.138;2024-01-15T10:02:20;3.33;;;1.83;;
12181;SDS011;6154;51.550;12.138;2024-01-15T10:04:48;3.65;;;2.05;;
12181;SDS011;6154;51.550;12.138;2024-01-15T10:07:18;5.35;;;2.08;;
12181;SDS011;6154;51.550;12.138;2024-01-15T10:09:46;4.10;;;2.08;;
12181;SDS011;6154;51.550;12.138;2024-01-15T10:12:14;3.00;;;1.70;;
12181;SDS011;6154;51.550;12.138;2024-01-15T10:14:43;4.90;;;1.83;;
12181;SDS011;6154;51.550;12.138;2024-01-15T10:17:13;3.17;;;2.28;;
12181;SDS011;6154;51.550;12.138;2024-01-15T10:19:42;5.28;;;1.87;;
12181;SDS011;6154;51.550;12.138;2024-01-15T10:22:15;4.32;;;1.70;;
12181;SDS011;6154;51.550;12.138;2024-01-15T10:24:46;2.67;;;1.65;;
12181;SDS011;6154;51.550;12.138;2024-01-15T10:27:15;4.30;;;1.58;;
12181;SDS011;6154;51.550;12.138;2024-01-15T10:29:43;2.47;;;1.52;;
12181;SDS011;6154;51.550;12.138;2024-01-15T10:32:11;2.75;;;1.67;;
12181;SDS011;6154;51.550;12.138;2024-01-15T10:34:40;4.47;;;1.50;;
12181;SDS011;6154;51.550;12.138;2024-01-15T10:37:10;3.30;;;1.10;;
12181;SDS011;6154;51.550;12.138;2024-01-15T10:39:38;3.33;;;2.53;;
12181;SDS011;6154;51.550;12.138;2024-01-15T10:42:08;3.55;;;1.92;;
12181;SDS011;6154;51.550;12.138;2024-01-15T10:44:36;3.78;;;2.00;;
12181;SDS011;6154;51.550;12.138;2024-01-15T10:47:04;3.90;;;1.92;;
12181;SDS011;6154;51.550;12.138;2024-01-15T10:49:32;3.50;;;2.08;;
12181;SDS011;6154;51.550;12.138;2024-01-15T10:52:00;3.67;;;1.70;;
12181;SDS011;6154;51.550;12.138;2024-01-15T10:54:29;2.37;;;1.50;;
12181;SDS011;6154;51.550;12.138;2024-01-15T10:56:57;5.90;;;1.73;;
12181;SDS011;6154;51.550;12.138;2024-01-15T10:59:27;3.67;;;1.62;;
12181;SDS011;6154;51.550;12.138;2024-01-15T11:01:55;8.32;;;2.00;;
12181;SDS011;6154;51.550;12.138;2024-01-15T11:04:24;2.40;;;1.45;;
12181;SDS011;6154;51.550;12.138;2024-01-15T11:06:54;5.40;;;1.85;;
12181;SDS011;6154;51.550;12.138;2024-01-15T11:09:24;3.55;;;1.85;;
12181;SDS011;6154;51.550;12.138;2024-01-15T11:11:52;3.33;;;1.77;;
12181;SDS011;6154;51.550;12.138;2024-01-15T11:14:38;1.80;;;1.37;;
12181;SDS011;6154;51.550;12.138;2024-01-15T11:17:06;4.78;;;2.22;;
12181;SDS011;6154;51.550;12.138;2024-01-15T11:19:35;2.70;;;1.67;;
12181;SDS011;6154;51.550;12.138;2024-01-15T11:22:05;4.90;;;1.80;;
12181;SDS011;6154;51.550;12.138;2024-01-15T11:24:34;3.20;;;2.10;;
12181;SDS011;6154;51.550;12.138;2024-01-15T11:27:03;6.07;;;2.05;;
12181;SDS011;6154;51.550;12.138;2024-01-15T11:29:32;4.00;;;1.65;;
12181;SDS011;6154;51.550;12.138;2024-01-15T11:32:03;4.10;;;1.95;;
12181;SDS011;6154;51.550;12.138;2024-01-15T11:34:55;4.22;;;1.48;;
12181;SDS011;6154;51.550;12.138;2024-01-15T11:37:27;3.70;;;1.60;;
12181;SDS011;6154;51.550;12.138;2024-01-15T11:40:00;3.72;;;2.22;;
12181;SDS011;6154;51.550;12.138;2024-01-15T11:42:30;6.37;;;2.45;;
12181;SDS011;6154;51.550;12.138;2024-01-15T11:44:59;3.42;;;1.90;;
12181;SDS011;6154;51.550;12.138;2024-01-15T11:47:41;2.15;;;1.50;;
12181;SDS011;6154;51.550;12.138;2024-01-15T11:50:34;5.97;;;1.80;;
12181;SDS011;6154;51.550;12.138;2024-01-15T11:53:02;1.90;;;1.33;;
12181;SDS011;6154;51.550;12.138;2024-01-15T11:55:34;5.15;;;2.33;;
12181;SDS011;6154;51.550;12.138;2024-01-15T11:58:03;4.22;;;1.87;;
12181;SDS011;6154;51.550;12.138;2024-01-15T12:00:39;4.10;;;1.80;;
12181;SDS011;6154;51.550;12.138;2024-01-15T12:03:09;2.62;;;1.08;;
12181;SDS011;6154;51.550;12.138;2024-01-15T12:05:38;1.40;;;1.15;;
12181;SDS011;6154;51.550;12.138;2024-01-15T12:08:06;3.50;;;2.03;;
12181;SDS011;6154;51.550;12.138;2024-01-15T12:10:37;3.75;;;2.00;;
12181;SDS011;6154;51.550;12.138;2024-01-15T12:13:09;4.28;;;2.30;;
12181;SDS011;6154;51.550;12.138;2024-01-15T12:15:38;5.37;;;2.20;;
12181;SDS011;6154;51.550;12.138;2024-01-15T12:18:08;4.15;;;1.75;;
12181;SDS011;6154;51.550;12.138;2024-01-15T12:20:39;4.47;;;1.55;;
12181;SDS011;6154;51.550;12.138;2024-01-15T12:23:09;4.85;;;1.77;;
12181;SDS011;6154;51.550;12.138;2024-01-15T12:25:38;2.45;;;2.15;;
12181;SDS011;6154;51.550;12.138;2024-01-15T12:28:07;2.85;;;1.83;;
12181;SDS011;6154;51.550;12.138;2024-01-15T12:30:35;4.53;;;2.37;;
12181;SDS011;6154;51.550;12.138;2024-01-15T12:33:05;3.40;;;1.83;;
12181;SDS011;6154;51.550;12.138;2024-01-15T12:35:35;3.17;;;1.85;;
12181;SDS011;6154;51.550;12.138;2024-01-15T12:38:04;3.00;;;1.60;;
12181;SDS011;6154;51.550;12.138;2024-01-15T12:40:32;3.30;;;1.60;;
12181;SDS011;6154;51.550;12.138;2024-01-15T12:43:02;3.35;;;1.85;;
12181;SDS011;6154;51.550;12.138;2024-01-15T12:45:30;1.65;;;1.23;;
12181;SDS011;6154;51.550;12.138;2024-01-15T12:47:59;3.83;;;2.40;;
12181;SDS011;6154;51.550;12.138;2024-01-15T12:50:28;5.85;;;2.03;;
12181;SDS011;6154;51.550;12.138;2024-01-15T12:52:57;3.47;;;1.98;;
12181;SDS011;6154;51.550;12.138;2024-01-15T12:55:26;4.22;;;2.00;;
12181;SDS011;6154;51.550;12.138;2024-01-15T12:57:54;2.40;;;1.60;;
12181;SDS011;6154;51.550;12.138;2024-01-15T13:00:22;1.90;;;1.30;;
12181;SDS011;6154;51.550;12.138;2024-01-15T13:02:52;2.37;;;1.50;;
12181;SDS011;6154;51.550;12.138;2024-01-15T13:05:21;7.25;;;1.95;;
12181;SDS011;6154;51.550;12.138;2024-01-15T13:07:51;2.40;;;1.30;;
12181;SDS011;6154;51.550;12.138;2024-01-15T13:10:20;2.60;;;1.50;;
12181;SDS011;6154;51.550;12.138;2024-01-15T13:12:51;1.70;;;1.00;;
12181;SDS011;6154;51.550;12.138;2024-01-15T13:15:19;4.25;;;1.37;;
12181;SDS011;6154;51.550;12.138;2024-01-15T13:17:47;2.53;;;1.17;;
12181;SDS011;6154;51.550;12.138;2024-01-15T13:20:15;3.05;;;1.67;;
12181;SDS011;6154;51.550;12.138;2024-01-15T13:22:43;1.27;;;1.00;;
12181;SDS011;6154;51.550;12.138;2024-01-15T13:25:12;2.70;;;1.02;;
12181;SDS011;6154;51.550;12.138;2024-01-15T13:27:41;2.00;;;0.98;;
12181;SDS011;6154;51.550;12.138;2024-01-15T13:30:10;1.05;;;0.73;;
12181;SDS011;6154;51.550;12.138;2024-01-15T13:32:39;1.08;;;0.98;;
12181;SDS011;6154;51.550;12.138;2024-01-15T13:35:08;2.30;;;1.10;;
12181;SDS011;6154;51.550;12.138;2024-01-15T13:37:39;1.27;;;0.95;;
12181;SDS011;6154;51.550;12.138;2024-01-15T13:40:08;3.75;;;1.45;;
12181;SDS011;6154;51.550;12.138;2024-01-15T13:42:36;1.67;;;1.30;;
12181;SDS011;6154;51.550;12.138;2024-01-15T13:45:06;1.45;;;1.25;;
12181;SDS011;6154;51.550;12.138;2024-01-15T13:47:35;7.87;;;1.60;;
12181;SDS011;6154;51.550;12.138;2024-01-15T13:50:04;2.17;;;1.05;;
12181;SDS011;6154;51.550;12.138;2024-01-15T13:52:33;2.22;;;0.90;;
12181;SDS011;6154;51.550;12.138;2024-01-15T13:55:01;1.20;;;1.00;;
12181;SDS011;6154;51.550;12.138;2024-01-15T13:57:29;2.30;;;1.23;;
12181;SDS011;6154;51.550;12.138;2024-01-15T13:59:57;1.77;;;1.62;;
12181;SDS011;6154;51.550;12.138;2024-01-15T14:02:26;2.03;;;0.70;;
12181;SDS011;6154;51.550;12.138;2024-01-15T14:04:54;2.17;;;1.23;;
12181;SDS011;6154;51.550;12.138;2024-01-15T14:07:22;1.40;;;1.15;;
12181;SDS011;6154;51.550;12.138;2024-01-15T14:09:50;3.58;;;1.52;;
12181;SDS011;6154;51.550;12.138;2024-01-15T14:12:18;3.60;;;1.25;;
12181;SDS011;6154;51.550;12.138;2024-01-15T14:14:46;1.33;;;0.85;;
12181;SDS011;6154;51.550;12.138;2024-01-15T14:17:14;1.20;;;0.93;;
12181;SDS011;6154;51.550;12.138;2024-01-15T14:19:43;2.05;;;0.75;;
12181;SDS011;6154;51.550;12.138;2024-01-15T14:22:11;0.68;;;0.60;;
12181;SDS011;6154;51.550;12.138;2024-01-15T14:24:39;0.88;;;0.68;;
12181;SDS011;6154;51.550;12.138;2024-01-15T14:27:07;0.55;;;0.55;;
12181;SDS011;6154;51.550;12.138;2024-01-15T14:29:36;2.25;;;0.70;;
12181;SDS011;6154;51.550;12.138;2024-01-15T14:32:05;0.95;;;0.80;;
12181;SDS011;6154;51.550;12.138;2024-01-15T14:34:33;6.10;;;1.00;;
12181;SDS011;6154;51.550;12.138;2024-01-15T14:37:04;1.17;;;1.00;;
12181;SDS011;6154;51.550;12.138;2024-01-15T14:39:32;3.00;;;1.40;;
12181;SDS011;6154;51.550;12.138;2024-01-15T14:42:01;1.02;;;0.93;;
12181;SDS011;6154;51.550;12.138;2024-01-15T14:44:29;1.83;;;1.25;;
12181;SDS011;6154;51.550;12.138;2024-01-15T14:46:57;1.30;;;0.60;;
12181;SDS011;6154;51.550;12.138;2024-01-15T14:49:25;0.98;;;0.80;;
12181;SDS011;6154;51.550;12.138;2024-01-15T14:51:53;2.12;;;0.90;;
12181;SDS011;6154;51.550;12.138;2024-01-15T14:54:22;1.80;;;0.75;;
12181;SDS011;6154;51.550;12.138;2024-01-15T14:56:51;0.75;;;0.70;;
12181;SDS011;6154;51.550;12.138;2024-01-15T14:59:19;0.77;;;0.60;;